sensor_id;sensor_type;location;lat;lon;timestamp;pressure;altitude;pressure_sealevel;temperature;humidity
6514;BME280;3290;47.716;9.070;2023-03-14T00:00:35;95713.34;;;11.63;100.00
6514;BME280;3290;47.716;9.070;2023-03-14T00:03:00;95712.84;;;11.40;100.00
6514;BME280;3290;47.716;9.070;2023-03-14T00:05:26;95703.38;;;11.34;100.00
6514;BME280;3290;47.716;9.070;2023-03-14T00:07:52;95698.31;;;11.28;100.00
6514;BME280;3290;47.716;9.070;2023-03-14T00:10:17;95696.28;;;11.35;100.00
6514;BME280;3290;47.716;9.070;2023-03-14T00:12:43;95694.09;;;11.48;100.00
6514;BME280;3290;47.716;9.070;2023-03-14T00:15:10;95678.69;;;11.30;100.00
6514;BME280;3290;47.716;9.070;2023-03-14T00:17:36;95694.91;;;11.27;100.00
6514;BME280;3290;47.716;9.070;2023-03-14T00:20:03;95694.97;;;11.32;100.00
6514;BME280;3290;47.716;9.070;2023-03-14T00:22:34;95695.84;;;11.43;100.00
6514;BME280;3290;47.716;9.070;2023-03-14T00:24:59;95702.13;;;11.42;100.00
6514;BME280;3290;47.716;9.070;2023-03-14T00:27:25;95705.78;;;11.41;100.00
6514;BME280;3290;47.716;9.070;2023-03-14T00:29:50;95706.66;;;11.20;100.00
6514;BME280;3290;47.716;9.070;2023-03-14T00:32:16;95701.66;;;11.18;100.00
6514;BME280;3290;47.716;9.070;2023-03-14T00:34:41;95687.81;;;11.02;100.00
6514;BME280;3290;47.716;9.070;2023-03-14T00:37:07;95668.22;;;11.04;100.00
6514;BME280;3290;47.716;9.070;2023-03-14T00:39:32;95634.28;;;10.67;100.00
6514;BME280;3290;47.716;9.070;2023-03-14T00:41:57;95627.78;;;11.00;100.00
6514;BME280;3290;47.716;9.070;2023-03-14T00:44:23;95610.28;;;11.06;100.00
6514;BME280;3290;47.716;9.070;2023-03-14T00:46:48;95611.06;;;10.75;100.00
6514;BME280;3290;47.716;9.070;2023-03-14T00:49:13;95598.31;;;10.83;100.00
6514;BME280;3290;47.716;9.070;2023-03-14T00:51:39;95586.28;;;10.87;100.00
6514;BME280;3290;47.716;9.070;2023-03-14T00:54:04;95574.78;;;10.88;100.00
6514;BME280;3290;47.716;9.070;2023-03-14T00:56:30;95550.81;;;10.75;100.00
6514;BME280;3290;47.716;9.070;2023-03-14T00:58:56;95526.94;;;10.72;100.00
6514;BME280;3290;47.716;9.070;2023-03-14T01:01:21;95516.56;;;10.86;100.00
6514;BME280;3290;47.716;9.070;2023-03-14T01:03:47;95521.78;;;10.81;100.00
6514;BME280;3290;47.716;9.070;2023-03-14T01:06:18;95505.31;;;10.86;100.00
6514;BME280;3290;47.716;9.070;2023-03-14T01:08:44;95519.75;;;10.88;100.00
6514;BME280;3290;47.716;9.070;2023-03-14T01:11:12;95512.66;;;11.20;100.00
6514;BME280;3290;47.716;9.070;2023-03-14T01:13:38;95522.72;;;11.02;100.00
6514;BME280;3290;47.716;9.070;2023-03-14T01:16:05;95538.78;;;11.10;100.00
6514;BME280;3290;47.716;9.070;2023-03-14T01:18:32;95546.72;;;11.20;100.00
6514;BME280;3290;47.716;9.070;2023-03-14T01:20:58;95554.28;;;11.48;100.00
6514;BME280;3290;47.716;9.070;2023-03-14T01:23:23;95575.63;;;11.30;100.00
6514;BME280;3290;47.716;9.070;2023-03-14T01:25:49;95570.88;;;11.22;100.00
6514;BME280;3290;47.716;9.070;2023-03-14T01:28:14;95582.22;;;11.01;100.00
6514;BME280;3290;47.716;9.070;2023-03-14T01:30:41;95590.44;;;11.15;100.00
6514;BME280;3290;47.716;9.070;2023-03-14T01:33:06;95588.09;;;11.13;100.00
6514;BME280;3290;47.716;9.070;2023-03-14T01:35:31;95571.84;;;11.16;100.00
6514;BME280;3290;47.716;9.070;2023-03-14T01:37:57;95573.78;;;10.94;100.00
6514;BME280;3290;47.716;9.070;2023-03-14T01:40:22;95574.13;;;11.03;100.00
6514;BME280;3290;47.716;9.070;2023-03-14T01:42:55;95571.78;;;11.06;100.00
6514;BME280;3290;47.716;9.070;2023-03-14T01:46:11;95564.38;;;10.98;100.00
6514;BME280;3290;47.716;9.070;2023-03-14T01:51:21;95542.28;;;10.89;100.00
6514;BME280;3290;47.716;9.070;2023-03-14T01:53:51;95536.31;;;10.94;100.00
6514;BME280;3290;47.716;9.070;2023-03-14T01:56:19;95531.97;;;10.78;100.00
6514;BME280;3290;47.716;9.070;2023-03-14T01:58:47;95519.84;;;11.03;100.00
6514;BME280;3290;47.716;9.070;2023-03-14T02:01:16;95509.22;;;10.83;100.00
6514;BME280;3290;47.716;9.070;2023-03-14T02:03:50;95500.59;;;10.88;100.00
6514;BME280;3290;47.716;9.070;2023-03-14T02:06:23;95503.75;;;10.85;100.00
6514;BME280;3290;47.716;9.070;2023-03-14T02:08:50;95498.22;;;10.86;100.00
6514;BME280;3290;47.716;9.070;2023-03-14T02:11:17;95498.22;;;10.86;100.00
6514;BME280;3290;47.716;9.070;2023-03-14T02:13:43;95493.06;;;10.96;100.00
6514;BME280;3290;47.716;9.070;2023-03-14T02:16:09;95489.63;;;10.91;100.00
6514;BME280;3290;47.716;9.070;2023-03-14T02:18:35;95491.47;;;10.95;100.00
6514;BME280;3290;47.716;9.070;2023-03-14T02:26:23;95500.97;;;11.01;100.00
6514;BME280;3290;47.716;9.070;2023-03-14T02:28:50;95498.41;;;11.06;100.00
6514;BME280;3290;47.716;9.070;2023-03-14T02:31:18;95503.34;;;11.03;100.00
6514;BME280;3290;47.716;9.070;2023-03-14T02:33:44;95500.94;;;10.96;100.00
6514;BME280;3290;47.716;9.070;2023-03-14T02:36:13;95502.50;;;10.92;100.00
6514;BME280;3290;47.716;9.070;2023-03-14T02:41:05;95504.03;;;10.93;100.00
6514;BME280;3290;47.716;9.070;2023-03-14T02:43:31;95498.03;;;10.93;100.00
6514;BME280;3290;47.716;9.070;2023-03-14T02:45:56;95506.56;;;10.78;100.00
6514;BME280;3290;47.716;9.070;2023-03-14T02:48:27;95488.41;;;11.03;100.00
6514;BME280;3290;47.716;9.070;2023-03-14T02:50:55;95489.97;;;10.99;100.00
6514;BME280;3290;47.716;9.070;2023-03-14T02:53:26;95487.09;;;11.01;100.00
6514;BME280;3290;47.716;9.070;2023-03-14T02:55:52;95487.38;;;11.04;99.81
6514;BME280;3290;47.716;9.070;2023-03-14T02:58:18;95478.78;;;11.14;98.63
6514;BME280;3290;47.716;9.070;2023-03-14T03:00:44;95474.00;;;11.01;98.97
6514;BME280;3290;47.716;9.070;2023-03-14T03:03:10;95469.75;;;10.95;99.37
6514;BME280;3290;47.716;9.070;2023-03-14T03:05:35;95472.13;;;10.96;98.54
6514;BME280;3290;47.716;9.070;2023-03-14T03:08:00;95466.13;;;11.06;99.42
6514;BME280;3290;47.716;9.070;2023-03-14T03:10:27;95469.09;;;11.14;99.29
6514;BME280;3290;47.716;9.070;2023-03-14T03:12:52;95455.34;;;11.38;98.33
6514;BME280;3290;47.716;9.070;2023-03-14T03:15:18;95463.81;;;11.04;97.30
6514;BME280;3290;47.716;9.070;2023-03-14T03:17:43;95474.91;;;11.21;97.31
6514;BME280;3290;47.716;9.070;2023-03-14T03:20:09;95468.97;;;10.94;98.14
6514;BME280;3290;47.716;9.070;2023-03-14T03:22:36;95473.66;;;10.92;97.01
6514;BME280;3290;47.716;9.070;2023-03-14T03:25:02;95466.91;;;11.01;97.06
6514;BME280;3290;47.716;9.070;2023-03-14T03:27:32;95467.94;;;11.00;96.92
6514;BME280;3290;47.716;9.070;2023-03-14T03:29:58;95466.50;;;10.83;97.57
6514;BME280;3290;47.716;9.070;2023-03-14T03:32:24;95460.31;;;10.94;96.53
6514;BME280;3290;47.716;9.070;2023-03-14T03:34:50;95449.06;;;10.98;96.76
6514;BME280;3290;47.716;9.070;2023-03-14T03:37:15;95457.91;;;10.87;97.40
6514;BME280;3290;47.716;9.070;2023-03-14T03:39:41;95449.56;;;10.95;96.00
6514;BME280;3290;47.716;9.070;2023-03-14T03:42:06;95451.50;;;11.10;96.14
6514;BME280;3290;47.716;9.070;2023-03-14T03:44:32;95453.78;;;10.96;97.42
6514;BME280;3290;47.716;9.070;2023-03-14T03:46:57;95452.81;;;11.12;96.62
6514;BME280;3290;47.716;9.070;2023-03-14T03:49:22;95452.63;;;11.18;96.70
6514;BME280;3290;47.716;9.070;2023-03-14T03:51:48;95449.13;;;11.08;97.17
6514;BME280;3290;47.716;9.070;2023-03-14T03:54:13;95454.81;;;10.95;97.68
6514;BME280;3290;47.716;9.070;2023-03-14T03:56:39;95444.34;;;11.00;97.39
6514;BME280;3290;47.716;9.070;2023-03-14T03:59:04;95437.03;;;10.97;96.13
6514;BME280;3290;47.716;9.070;2023-03-14T04:01:29;95437.06;;;11.07;97.39
6514;BME280;3290;47.716;9.070;2023-03-14T04:03:55;95435.53;;;11.11;97.33
6514;BME280;3290;47.716;9.070;2023-03-14T04:06:20;95437.38;;;10.75;99.05
6514;BME280;3290;47.716;9.070;2023-03-14T04:08:45;95437.56;;;10.99;97.14
6514;BME280;3290;47.716;9.070;2023-03-14T04:11:11;95430.19;;;10.96;96.64
6514;BME280;3290;47.716;9.070;2023-03-14T04:13:36;95426.50;;;10.92;97.37
6514;BME280;3290;47.716;9.070;2023-03-14T04:16:02;95433.47;;;10.77;97.35
6514;BME280;3290;47.716;9.070;2023-03-14T04:18:27;95414.38;;;10.81;96.79
6514;BME280;3290;47.716;9.070;2023-03-14T04:20:55;95410.47;;;10.84;96.44
6514;BME280;3290;47.716;9.070;2023-03-14T04:23:22;95411.00;;;10.86;96.49
6514;BME280;3290;47.716;9.070;2023-03-14T04:25:52;95412.63;;;10.92;96.49
6514;BME280;3290;47.716;9.070;2023-03-14T04:28:18;95411.28;;;10.89;96.96
6514;BME280;3290;47.716;9.070;2023-03-14T04:30:43;95410.25;;;10.90;97.16
6514;BME280;3290;47.716;9.070;2023-03-14T04:33:09;95403.63;;;10.83;97.34
6514;BME280;3290;47.716;9.070;2023-03-14T04:35:35;95405.50;;;10.87;96.11
6514;BME280;3290;47.716;9.070;2023-03-14T04:38:00;95410.66;;;10.77;97.66
6514;BME280;3290;47.716;9.070;2023-03-14T04:40:26;95404.28;;;10.64;98.65
6514;BME280;3290;47.716;9.070;2023-03-14T04:42:51;95392.88;;;10.79;97.57
6514;BME280;3290;47.716;9.070;2023-03-14T04:45:17;95394.41;;;10.76;98.21
6514;BME280;3290;47.716;9.070;2023-03-14T04:47:42;95398.78;;;10.65;97.56
6514;BME280;3290;47.716;9.070;2023-03-14T04:50:08;95394.94;;;10.77;96.65
6514;BME280;3290;47.716;9.070;2023-03-14T04:52:34;95395.88;;;10.62;98.28
6514;BME280;3290;47.716;9.070;2023-03-14T04:54:59;95397.53;;;10.68;97.65
6514;BME280;3290;47.716;9.070;2023-03-14T04:57:24;95395.47;;;10.75;98.38
6514;BME280;3290;47.716;9.070;2023-03-14T04:59:50;95387.78;;;10.63;97.85
6514;BME280;3290;47.716;9.070;2023-03-14T05:02:15;95384.13;;;10.64;98.35
6514;BME280;3290;47.716;9.070;2023-03-14T05:04:41;95376.09;;;10.76;97.20
6514;BME280;3290;47.716;9.070;2023-03-14T05:07:06;95369.22;;;10.65;98.14
6514;BME280;3290;47.716;9.070;2023-03-14T05:09:31;95364.53;;;10.72;97.97
6514;BME280;3290;47.716;9.070;2023-03-14T05:11:57;95345.97;;;10.73;97.19
6514;BME280;3290;47.716;9.070;2023-03-14T05:14:22;95336.75;;;10.71;96.63
6514;BME280;3290;47.716;9.070;2023-03-14T05:16:47;95329.09;;;10.59;97.86
6514;BME280;3290;47.716;9.070;2023-03-14T05:19:13;95329.88;;;10.60;96.77
6514;BME280;3290;47.716;9.070;2023-03-14T05:21:38;95321.31;;;10.74;96.42
6514;BME280;3290;47.716;9.070;2023-03-14T05:24:04;95321.09;;;10.80;94.91
6514;BME280;3290;47.716;9.070;2023-03-14T05:26:29;95316.13;;;10.79;95.10
6514;BME280;3290;47.716;9.070;2023-03-14T05:28:55;95311.63;;;10.70;94.47
6514;BME280;3290;47.716;9.070;2023-03-14T05:31:21;95310.06;;;10.74;94.40
6514;BME280;3290;47.716;9.070;2023-03-14T05:33:46;95314.84;;;10.86;95.06
6514;BME280;3290;47.716;9.070;2023-03-14T05:36:12;95307.69;;;10.72;94.96
6514;BME280;3290;47.716;9.070;2023-03-14T05:41:50;95299.03;;;10.67;93.16
6514;BME280;3290;47.716;9.070;2023-03-14T05:44:16;95309.03;;;10.79;93.54
6514;BME280;3290;47.716;9.070;2023-03-14T05:46:41;95304.31;;;10.77;93.72
6514;BME280;3290;47.716;9.070;2023-03-14T05:49:07;95300.63;;;10.68;93.46
6514;BME280;3290;47.716;9.070;2023-03-14T05:51:32;95284.66;;;10.69;93.38
6514;BME280;3290;47.716;9.070;2023-03-14T05:53:57;95278.41;;;10.80;92.58
6514;BME280;3290;47.716;9.070;2023-03-14T05:56:23;95284.16;;;10.77;93.38
6514;BME280;3290;47.716;9.070;2023-03-14T05:58:48;95261.34;;;10.77;93.72
6514;BME280;3290;47.716;9.070;2023-03-14T06:01:23;95271.81;;;10.73;93.59
6514;BME280;3290;47.716;9.070;2023-03-14T06:03:48;95273.31;;;10.54;94.68
6514;BME280;3290;47.716;9.070;2023-03-14T06:06:13;95276.00;;;10.69;94.35
6514;BME280;3290;47.716;9.070;2023-03-14T06:08:39;95277.03;;;10.68;94.10
6514;BME280;3290;47.716;9.070;2023-03-14T06:11:04;95274.47;;;10.77;93.04
6514;BME280;3290;47.716;9.070;2023-03-14T06:13:30;95280.72;;;10.72;93.56
6514;BME280;3290;47.716;9.070;2023-03-14T06:15:55;95278.59;;;10.69;91.15
6514;BME280;3290;47.716;9.070;2023-03-14T06:18:21;95274.72;;;10.71;91.47
6514;BME280;3290;47.716;9.070;2023-03-14T06:20:46;95269.31;;;10.97;90.24
6514;BME280;3290;47.716;9.070;2023-03-14T06:23:11;95267.19;;;10.89;90.58
6514;BME280;3290;47.716;9.070;2023-03-14T06:25:37;95274.00;;;10.90;91.29
6514;BME280;3290;47.716;9.070;2023-03-14T06:28:03;95271.63;;;10.89;90.63
6514;BME280;3290;47.716;9.070;2023-03-14T06:30:28;95264.34;;;11.06;90.73
6514;BME280;3290;47.716;9.070;2023-03-14T06:32:54;95268.22;;;10.83;91.55
6514;BME280;3290;47.716;9.070;2023-03-14T06:35:21;95266.41;;;10.89;90.68
6514;BME280;3290;47.716;9.070;2023-03-14T06:37:47;95267.72;;;10.96;91.34
6514;BME280;3290;47.716;9.070;2023-03-14T06:40:13;95262.47;;;10.91;91.25
6514;BME280;3290;47.716;9.070;2023-03-14T06:42:42;95258.84;;;11.02;90.58
6514;BME280;3290;47.716;9.070;2023-03-14T06:45:08;95249.97;;;11.13;88.95
6514;BME280;3290;47.716;9.070;2023-03-14T06:47:34;95247.06;;;11.05;89.18
6514;BME280;3290;47.716;9.070;2023-03-14T06:49:59;95253.38;;;11.14;88.67
6514;BME280;3290;47.716;9.070;2023-03-14T06:52:24;95257.84;;;11.13;89.96
6514;BME280;3290;47.716;9.070;2023-03-14T06:54:50;95254.09;;;10.94;90.02
6514;BME280;3290;47.716;9.070;2023-03-14T06:57:15;95261.47;;;11.07;89.27
6514;BME280;3290;47.716;9.070;2023-03-14T06:59:41;95260.69;;;11.02;89.20
6514;BME280;3290;47.716;9.070;2023-03-14T07:02:10;95259.94;;;11.11;89.56
6514;BME280;3290;47.716;9.070;2023-03-14T07:04:36;95251.66;;;10.73;90.93
6514;BME280;3290;47.716;9.070;2023-03-14T07:07:02;95254.06;;;10.84;90.33
6514;BME280;3290;47.716;9.070;2023-03-14T07:09:27;95258.72;;;10.73;90.58
6514;BME280;3290;47.716;9.070;2023-03-14T07:11:52;95256.19;;;10.92;89.19
6514;BME280;3290;47.716;9.070;2023-03-14T07:14:18;95257.81;;;11.03;89.58
6514;BME280;3290;47.716;9.070;2023-03-14T07:16:43;95264.13;;;11.12;89.49
6514;BME280;3290;47.716;9.070;2023-03-14T07:19:10;95263.47;;;10.80;89.23
6514;BME280;3290;47.716;9.070;2023-03-14T07:21:35;95267.22;;;10.99;88.95
6514;BME280;3290;47.716;9.070;2023-03-14T07:24:01;95270.16;;;11.18;87.98
6514;BME280;3290;47.716;9.070;2023-03-14T07:26:26;95277.25;;;11.17;87.58
6514;BME280;3290;47.716;9.070;2023-03-14T07:28:52;95269.19;;;11.43;86.82
6514;BME280;3290;47.716;9.070;2023-03-14T07:31:17;95277.09;;;11.58;86.00
6514;BME280;3290;47.716;9.070;2023-03-14T07:33:42;95274.75;;;11.86;85.01
6514;BME280;3290;47.716;9.070;2023-03-14T07:36:10;95265.31;;;12.00;82.62
6514;BME280;3290;47.716;9.070;2023-03-14T07:38:35;95276.38;;;11.97;82.59
6514;BME280;3290;47.716;9.070;2023-03-14T07:41:05;95273.75;;;11.97;82.33
6514;BME280;3290;47.716;9.070;2023-03-14T07:43:31;95274.25;;;11.84;82.65
6514;BME280;3290;47.716;9.070;2023-03-14T07:45:56;95280.31;;;12.04;80.77
6514;BME280;3290;47.716;9.070;2023-03-14T07:48:22;95286.06;;;12.01;80.86
6514;BME280;3290;47.716;9.070;2023-03-14T07:50:51;95293.34;;;11.60;81.27
6514;BME280;3290;47.716;9.070;2023-03-14T07:53:16;95288.91;;;11.51;83.34
6514;BME280;3290;47.716;9.070;2023-03-14T07:55:42;95281.56;;;11.58;83.38
6514;BME280;3290;47.716;9.070;2023-03-14T07:58:07;95284.94;;;11.53;83.96
6514;BME280;3290;47.716;9.070;2023-03-14T08:00:32;95293.09;;;11.52;84.43
6514;BME280;3290;47.716;9.070;2023-03-14T08:02:58;95291.25;;;11.47;84.67
6514;BME280;3290;47.716;9.070;2023-03-14T08:05:23;95288.28;;;11.24;84.79
6514;BME280;3290;47.716;9.070;2023-03-14T08:07:49;95288.31;;;11.44;85.42
6514;BME280;3290;47.716;9.070;2023-03-14T08:10:14;95277.09;;;11.48;84.95
6514;BME280;3290;47.716;9.070;2023-03-14T08:12:56;95273.69;;;11.58;84.60
6514;BME280;3290;47.716;9.070;2023-03-14T08:15:23;95272.41;;;12.24;81.94
6514;BME280;3290;47.716;9.070;2023-03-14T08:17:49;95274.16;;;12.68;78.71
6514;BME280;3290;47.716;9.070;2023-03-14T08:20:23;95273.25;;;13.12;77.00
6514;BME280;3290;47.716;9.070;2023-03-14T08:22:49;95283.06;;;13.50;74.48
6514;BME280;3290;47.716;9.070;2023-03-14T08:25:15;95290.78;;;14.17;71.64
6514;BME280;3290;47.716;9.070;2023-03-14T08:27:40;95271.84;;;14.72;68.98
6514;BME280;3290;47.716;9.070;2023-03-14T08:30:08;95275.41;;;14.57;69.16
6514;BME280;3290;47.716;9.070;2023-03-14T08:32:34;95270.44;;;14.56;68.55
6514;BME280;3290;47.716;9.070;2023-03-14T08:34:59;95275.78;;;14.46;68.54
6514;BME280;3290;47.716;9.070;2023-03-14T08:37:25;95279.25;;;14.08;69.43
6514;BME280;3290;47.716;9.070;2023-03-14T08:39:51;95287.44;;;13.69;71.96
6514;BME280;3290;47.716;9.070;2023-03-14T08:42:17;95284.25;;;13.24;72.79
6514;BME280;3290;47.716;9.070;2023-03-14T08:44:42;95291.97;;;12.96;73.60
6514;BME280;3290;47.716;9.070;2023-03-14T08:47:08;95297.00;;;12.92;75.19
6514;BME280;3290;47.716;9.070;2023-03-14T08:49:33;95298.47;;;13.23;74.65
6514;BME280;3290;47.716;9.070;2023-03-14T08:51:58;95299.34;;;12.94;75.26
6514;BME280;3290;47.716;9.070;2023-03-14T08:54:24;95297.78;;;12.93;73.89
6514;BME280;3290;47.716;9.070;2023-03-14T08:56:49;95302.25;;;12.82;74.20
6514;BME280;3290;47.716;9.070;2023-03-14T08:59:15;95293.00;;;13.00;73.28
6514;BME280;3290;47.716;9.070;2023-03-14T09:01:40;95301.72;;;12.95;73.93
6514;BME280;3290;47.716;9.070;2023-03-14T09:04:06;95306.66;;;13.07;73.73
6514;BME280;3290;47.716;9.070;2023-03-14T09:06:32;95300.81;;;13.24;74.02
6514;BME280;3290;47.716;9.070;2023-03-14T09:08:57;95313.44;;;13.22;73.17
6514;BME280;3290;47.716;9.070;2023-03-14T09:11:22;95309.44;;;13.88;70.39
6514;BME280;3290;47.716;9.070;2023-03-14T09:13:48;95315.59;;;14.73;68.10
6514;BME280;3290;47.716;9.070;2023-03-14T09:16:14;95318.72;;;14.75;67.25
6514;BME280;3290;47.716;9.070;2023-03-14T09:18:39;95313.66;;;14.22;68.61
6514;BME280;3290;47.716;9.070;2023-03-14T09:21:05;95321.78;;;14.30;69.64
6514;BME280;3290;47.716;9.070;2023-03-14T09:23:30;95326.31;;;14.25;69.20
6514;BME280;3290;47.716;9.070;2023-03-14T09:25:59;95331.34;;;14.21;69.70
6514;BME280;3290;47.716;9.070;2023-03-14T09:28:26;95327.47;;;13.61;70.59
6514;BME280;3290;47.716;9.070;2023-03-14T09:30:51;95339.09;;;13.55;70.90
6514;BME280;3290;47.716;9.070;2023-03-14T09:33:17;95344.22;;;13.75;70.07
6514;BME280;3290;47.716;9.070;2023-03-14T09:35:43;95344.34;;;13.98;68.83
6514;BME280;3290;47.716;9.070;2023-03-14T09:38:08;95350.09;;;14.48;67.90
6514;BME280;3290;47.716;9.070;2023-03-14T09:40:35;95338.47;;;15.05;66.05
6514;BME280;3290;47.716;9.070;2023-03-14T09:43:02;95348.34;;;14.67;66.46
6514;BME280;3290;47.716;9.070;2023-03-14T09:47:53;95354.09;;;14.07;67.79
6514;BME280;3290;47.716;9.070;2023-03-14T09:50:20;95364.97;;;13.86;69.03
6514;BME280;3290;47.716;9.070;2023-03-14T09:52:48;95352.75;;;13.57;68.53
6514;BME280;3290;47.716;9.070;2023-03-14T09:55:20;95357.56;;;13.40;69.66
6514;BME280;3290;47.716;9.070;2023-03-14T09:57:47;95347.88;;;13.31;70.35
6514;BME280;3290;47.716;9.070;2023-03-14T10:00:22;95349.25;;;13.14;71.34
6514;BME280;3290;47.716;9.070;2023-03-14T10:02:57;95359.28;;;12.92;71.79
6514;BME280;3290;47.716;9.070;2023-03-14T10:05:25;95361.88;;;13.07;72.52
6514;BME280;3290;47.716;9.070;2023-03-14T10:07:51;95351.41;;;12.97;72.24
6514;BME280;3290;47.716;9.070;2023-03-14T10:10:21;95366.66;;;12.90;72.74
6514;BME280;3290;47.716;9.070;2023-03-14T10:12:54;95364.56;;;12.72;73.54
6514;BME280;3290;47.716;9.070;2023-03-14T10:15:25;95366.91;;;12.78;72.81
6514;BME280;3290;47.716;9.070;2023-03-14T10:17:52;95378.22;;;12.64;73.55
6514;BME280;3290;47.716;9.070;2023-03-14T10:20:37;95374.56;;;12.65;74.91
6514;BME280;3290;47.716;9.070;2023-03-14T10:25:40;95376.91;;;12.67;74.72
6514;BME280;3290;47.716;9.070;2023-03-14T10:28:24;95377.19;;;12.60;75.26
6514;BME280;3290;47.716;9.070;2023-03-14T10:30:50;95380.84;;;12.64;74.54
6514;BME280;3290;47.716;9.070;2023-03-14T10:33:22;95385.34;;;12.69;73.48
6514;BME280;3290;47.716;9.070;2023-03-14T10:35:59;95387.16;;;12.58;72.82
6514;BME280;3290;47.716;9.070;2023-03-14T10:38:28;95382.97;;;12.62;72.45
6514;BME280;3290;47.716;9.070;2023-03-14T10:40:55;95396.88;;;12.33;74.06
6514;BME280;3290;47.716;9.070;2023-03-14T10:43:31;95397.66;;;12.24;74.83
6514;BME280;3290;47.716;9.070;2023-03-14T10:46:18;95387.69;;;12.11;75.63
6514;BME280;3290;47.716;9.070;2023-03-14T10:48:44;95415.78;;;12.25;75.75
6514;BME280;3290;47.716;9.070;2023-03-14T10:53:55;95429.94;;;12.24;77.11
6514;BME280;3290;47.716;9.070;2023-03-14T10:56:22;95430.41;;;11.97;78.40
6514;BME280;3290;47.716;9.070;2023-03-14T10:58:50;95441.34;;;11.74;80.89
6514;BME280;3290;47.716;9.070;2023-03-14T11:03:48;95433.41;;;11.54;84.99
6514;BME280;3290;47.716;9.070;2023-03-14T11:06:34;95438.28;;;11.41;85.57
6514;BME280;3290;47.716;9.070;2023-03-14T11:09:25;95437.88;;;11.54;86.61
6514;BME280;3290;47.716;9.070;2023-03-14T11:12:14;95434.03;;;11.25;85.03
6514;BME280;3290;47.716;9.070;2023-03-14T11:14:51;95442.72;;;11.30;86.28
6514;BME280;3290;47.716;9.070;2023-03-14T11:20:15;95444.19;;;11.58;85.73
6514;BME280;3290;47.716;9.070;2023-03-14T11:28:37;95444.00;;;11.28;86.21
6514;BME280;3290;47.716;9.070;2023-03-14T11:33:51;95471.28;;;11.27;88.21
6514;BME280;3290;47.716;9.070;2023-03-14T11:36:31;95471.22;;;11.17;89.18
6514;BME280;3290;47.716;9.070;2023-03-14T11:38:59;95475.75;;;10.95;91.78
6514;BME280;3290;47.716;9.070;2023-03-14T11:41:29;95480.56;;;10.72;93.77
6514;BME280;3290;47.716;9.070;2023-03-14T11:43:57;95482.16;;;10.73;93.97
6514;BME280;3290;47.716;9.070;2023-03-14T11:46:44;95486.56;;;10.68;94.78
6514;BME280;3290;47.716;9.070;2023-03-14T11:49:19;95491.56;;;10.69;95.16
6514;BME280;3290;47.716;9.070;2023-03-14T11:51:58;95494.31;;;10.58;93.48
6514;BME280;3290;47.716;9.070;2023-03-14T11:54:46;95501.34;;;10.52;92.37
6514;BME280;3290;47.716;9.070;2023-03-14T11:57:19;95499.75;;;10.46;91.54
6514;BME280;3290;47.716;9.070;2023-03-14T12:00:05;95525.47;;;10.54;92.84
6514;BME280;3290;47.716;9.070;2023-03-14T12:08:38;95544.78;;;10.01;97.71
6514;BME280;3290;47.716;9.070;2023-03-14T12:11:06;95554.06;;;9.55;99.42
6514;BME280;3290;47.716;9.070;2023-03-14T12:13:37;95553.75;;;9.51;100.00
6514;BME280;3290;47.716;9.070;2023-03-14T12:16:19;95549.09;;;9.53;100.00
6514;BME280;3290;47.716;9.070;2023-03-14T12:18:48;95559.97;;;9.45;100.00
6514;BME280;3290;47.716;9.070;2023-03-14T12:21:14;95568.97;;;9.54;100.00
6514;BME280;3290;47.716;9.070;2023-03-14T12:28:33;95553.47;;;9.31;100.00
6514;BME280;3290;47.716;9.070;2023-03-14T12:42:17;95567.75;;;9.61;100.00
6514;BME280;3290;47.716;9.070;2023-03-14T12:44:49;95570.09;;;9.42;100.00
6514;BME280;3290;47.716;9.070;2023-03-14T12:49:45;95581.63;;;9.62;100.00
6514;BME280;3290;47.716;9.070;2023-03-14T12:52:19;95593.31;;;9.92;100.00
6514;BME280;3290;47.716;9.070;2023-03-14T12:54:50;95589.19;;;9.80;100.00
6514;BME280;3290;47.716;9.070;2023-03-14T12:57:28;95605.25;;;9.88;100.00
6514;BME280;3290;47.716;9.070;2023-03-14T13:00:22;95619.31;;;9.82;100.00
6514;BME280;3290;47.716;9.070;2023-03-14T13:02:48;95623.69;;;9.77;100.00
6514;BME280;3290;47.716;9.070;2023-03-14T13:05:24;95626.63;;;9.80;100.00
6514;BME280;3290;47.716;9.070;2023-03-14T13:10:26;95636.53;;;9.95;100.00
6514;BME280;3290;47.716;9.070;2023-03-14T13:13:31;95651.97;;;9.96;100.00
6514;BME280;3290;47.716;9.070;2023-03-14T13:16:00;95667.16;;;10.15;99.64
6514;BME280;3290;47.716;9.070;2023-03-14T13:18:45;95706.31;;;10.48;98.68
6514;BME280;3290;47.716;9.070;2023-03-14T13:21:21;95725.19;;;9.80;94.46
6514;BME280;3290;47.716;9.070;2023-03-14T13:24:24;95730.97;;;9.49;96.72
6514;BME280;3290;47.716;9.070;2023-03-14T13:26:52;95739.78;;;8.88;100.00
6514;BME280;3290;47.716;9.070;2023-03-14T13:29:26;95753.16;;;8.91;100.00
6514;BME280;3290;47.716;9.070;2023-03-14T13:31:57;95756.38;;;8.82;100.00
6514;BME280;3290;47.716;9.070;2023-03-14T13:34:31;95763.72;;;8.46;100.00
6514;BME280;3290;47.716;9.070;2023-03-14T13:36:57;95783.13;;;8.50;100.00
6514;BME280;3290;47.716;9.070;2023-03-14T13:39:25;95789.59;;;8.47;100.00
6514;BME280;3290;47.716;9.070;2023-03-14T13:41:58;95796.88;;;8.45;100.00
6514;BME280;3290;47.716;9.070;2023-03-14T13:44:38;95794.97;;;8.80;100.00
6514;BME280;3290;47.716;9.070;2023-03-14T13:47:09;95788.69;;;9.31;100.00
6514;BME280;3290;47.716;9.070;2023-03-14T13:49:37;95795.13;;;10.33;100.00
6514;BME280;3290;47.716;9.070;2023-03-14T13:52:04;95797.53;;;10.93;100.00
6514;BME280;3290;47.716;9.070;2023-03-14T13:54:46;95805.81;;;11.28;98.05
6514;BME280;3290;47.716;9.070;2023-03-14T13:57:11;95807.47;;;11.55;94.61
6514;BME280;3290;47.716;9.070;2023-03-14T13:59:36;95818.53;;;10.77;93.39
6514;BME280;3290;47.716;9.070;2023-03-14T14:02:12;95826.06;;;11.11;95.95
6514;BME280;3290;47.716;9.070;2023-03-14T14:04:38;95830.44;;;10.84;96.82
6514;BME280;3290;47.716;9.070;2023-03-14T14:07:09;95833.06;;;10.47;94.49
6514;BME280;3290;47.716;9.070;2023-03-14T14:09:39;95840.16;;;10.51;95.55
6514;BME280;3290;47.716;9.070;2023-03-14T14:15:15;95837.41;;;11.38;84.72
6514;BME280;3290;47.716;9.070;2023-03-14T14:20:32;95849.78;;;11.21;74.92
6514;BME280;3290;47.716;9.070;2023-03-14T14:23:04;95870.50;;;11.01;76.65
6514;BME280;3290;47.716;9.070;2023-03-14T14:25:30;95861.47;;;11.35;75.39
6514;BME280;3290;47.716;9.070;2023-03-14T14:27:56;95868.72;;;11.07;76.18
6514;BME280;3290;47.716;9.070;2023-03-14T14:30:24;95863.75;;;11.48;70.82
6514;BME280;3290;47.716;9.070;2023-03-14T14:32:51;95861.56;;;11.40;70.32